sensor_id;sensor_type;location;lat;lon;timestamp;P1;durP1;ratioP1;P2;durP2;ratioP2
33830;SDS011;20137;48.834;8.732;2022-07-23T00:01:18;10.75;;;7.35;;
33830;SDS011;20137;48.834;8.732;2022-07-23T00:03:44;9.32;;;6.72;;
33830;SDS011;20137;48.834;8.732;2022-07-23T00:06:10;9.50;;;6.50;;
33830;SDS011;20137;48.834;8.732;2022-07-23T00:08:35;7.18;;;6.10;;
33830;SDS011;20137;48.834;8.732;2022-07-23T00:11:01;8.35;;;6.32;;
33830;SDS011;20137;48.834;8.732;2022-07-23T00:13:27;6.75;;;5.72;;
33830;SDS011;20137;48.834;8.732;2022-07-23T00:15:53;5.78;;;5.28;;
33830;SDS011;20137;48.834;8.732;2022-07-23T00:18:19;6.53;;;5.82;;
33830;SDS011;20137;48.834;8.732;2022-07-23T00:20:45;6.90;;;6.20;;
33830;SDS011;20137;48.834;8.732;2022-07-23T00:23:10;7.88;;;5.80;;
33830;SDS011;20137;48.834;8.732;2022-07-23T00:25:36;8.35;;;6.03;;
33830;SDS011;20137;48.834;8.732;2022-07-23T00:28:02;8.15;;;6.93;;
33830;SDS011;20137;48.834;8.732;2022-07-23T00:30:28;9.23;;;7.00;;
33830;SDS011;20137;48.834;8.732;2022-07-23T00:32:56;7.07;;;6.38;;
33830;SDS011;20137;48.834;8.732;2022-07-23T00:35:24;7.90;;;6.88;;
33830;SDS011;20137;48.834;8.732;2022-07-23T00:37:50;10.55;;;7.28;;
33830;SDS011;20137;48.834;8.732;2022-07-23T00:40:16;9.60;;;7.00;;
33830;SDS011;20137;48.834;8.732;2022-07-23T00:42:42;6.80;;;6.20;;
33830;SDS011;20137;48.834;8.732;2022-07-23T00:45:08;10.27;;;7.38;;
33830;SDS011;20137;48.834;8.732;2022-07-23T00:47:34;11.75;;;7.68;;
33830;SDS011;20137;48.834;8.732;2022-07-23T00:50:01;7.88;;;7.07;;
33830;SDS011;20137;48.834;8.732;2022-07-23T00:52:28;13.75;;;7.75;;
33830;SDS011;20137;48.834;8.732;2022-07-23T00:54:54;8.02;;;7.18;;
33830;SDS011;20137;48.834;8.732;2022-07-23T00:57:20;7.80;;;6.82;;
33830;SDS011;20137;48.834;8.732;2022-07-23T00:59:46;11.85;;;7.05;;
33830;SDS011;20137;48.834;8.732;2022-07-23T01:02:11;9.15;;;7.55;;
33830;SDS011;20137;48.834;8.732;2022-07-23T01:04:37;9.35;;;7.30;;
33830;SDS011;20137;48.834;8.732;2022-07-23T01:07:03;11.55;;;7.28;;
33830;SDS011;20137;48.834;8.732;2022-07-23T01:09:29;9.90;;;7.90;;
33830;SDS011;20137;48.834;8.732;2022-07-23T01:11:56;10.27;;;7.38;;
33830;SDS011;20137;48.834;8.732;2022-07-23T01:14:23;9.95;;;7.13;;
33830;SDS011;20137;48.834;8.732;2022-07-23T01:16:49;8.32;;;6.93;;
33830;SDS011;20137;48.834;8.732;2022-07-23T01:19:15;8.85;;;7.13;;
33830;SDS011;20137;48.834;8.732;2022-07-23T01:21:43;9.35;;;7.57;;
33830;SDS011;20137;48.834;8.732;2022-07-23T01:24:13;7.82;;;7.03;;
33830;SDS011;20137;48.834;8.732;2022-07-23T01:26:41;8.93;;;7.35;;
33830;SDS011;20137;48.834;8.732;2022-07-23T01:29:08;9.65;;;7.28;;
33830;SDS011;20137;48.834;8.732;2022-07-23T01:31:34;8.45;;;7.15;;
33830;SDS011;20137;48.834;8.732;2022-07-23T01:34:00;9.15;;;7.35;;
33830;SDS011;20137;48.834;8.732;2022-07-23T01:36:26;12.93;;;8.27;;
33830;SDS011;20137;48.834;8.732;2022-07-23T01:38:52;9.40;;;7.45;;
33830;SDS011;20137;48.834;8.732;2022-07-23T01:41:18;12.55;;;7.78;;
33830;SDS011;20137;48.834;8.732;2022-07-23T01:43:44;8.63;;;7.20;;
33830;SDS011;20137;48.834;8.732;2022-07-23T01:46:10;11.07;;;7.15;;
33830;SDS011;20137;48.834;8.732;2022-07-23T01:48:35;10.52;;;7.80;;
33830;SDS011;20137;48.834;8.732;2022-07-23T01:51:01;8.23;;;6.65;;
33830;SDS011;20137;48.834;8.732;2022-07-23T01:53:27;10.25;;;7.30;;
33830;SDS011;20137;48.834;8.732;2022-07-23T01:55:56;10.05;;;7.47;;
33830;SDS011;20137;48.834;8.732;2022-07-23T01:58:22;8.02;;;6.90;;
33830;SDS011;20137;48.834;8.732;2022-07-23T02:00:48;9.30;;;7.30;;
33830;SDS011;20137;48.834;8.732;2022-07-23T02:03:13;10.18;;;6.55;;
33830;SDS011;20137;48.834;8.732;2022-07-23T02:05:39;8.80;;;7.18;;
33830;SDS011;20137;48.834;8.732;2022-07-23T02:08:05;13.63;;;7.68;;
33830;SDS011;20137;48.834;8.732;2022-07-23T02:10:34;8.95;;;7.25;;
33830;SDS011;20137;48.834;8.732;2022-07-23T02:12:59;9.20;;;7.43;;
33830;SDS011;20137;48.834;8.732;2022-07-23T02:15:25;8.23;;;6.80;;
33830;SDS011;20137;48.834;8.732;2022-07-23T02:17:51;8.55;;;7.22;;
33830;SDS011;20137;48.834;8.732;2022-07-23T02:20:17;9.25;;;7.18;;
33830;SDS011;20137;48.834;8.732;2022-07-23T02:22:43;9.93;;;7.75;;
33830;SDS011;20137;48.834;8.732;2022-07-23T02:25:09;10.43;;;6.95;;
33830;SDS011;20137;48.834;8.732;2022-07-23T02:27:35;10.18;;;7.50;;
33830;SDS011;20137;48.834;8.732;2022-07-23T02:30:02;10.52;;;7.63;;
33830;SDS011;20137;48.834;8.732;2022-07-23T02:32:28;10.05;;;7.03;;
33830;SDS011;20137;48.834;8.732;2022-07-23T02:34:54;8.32;;;7.07;;
33830;SDS011;20137;48.834;8.732;2022-07-23T02:37:19;8.10;;;6.97;;
33830;SDS011;20137;48.834;8.732;2022-07-23T02:39:45;9.88;;;6.25;;
33830;SDS011;20137;48.834;8.732;2022-07-23T02:42:13;8.70;;;6.88;;
33830;SDS011;20137;48.834;8.732;2022-07-23T02:44:39;7.82;;;6.20;;
33830;SDS011;20137;48.834;8.732;2022-07-23T02:47:06;9.13;;;6.45;;
33830;SDS011;20137;48.834;8.732;2022-07-23T02:49:31;8.88;;;7.28;;
33830;SDS011;20137;48.834;8.732;2022-07-23T02:51:57;8.45;;;6.60;;
33830;SDS011;20137;48.834;8.732;2022-07-23T02:54:23;7.20;;;5.88;;
33830;SDS011;20137;48.834;8.732;2022-07-23T02:56:48;8.10;;;6.00;;
33830;SDS011;20137;48.834;8.732;2022-07-23T02:59:16;7.40;;;6.00;;
33830;SDS011;20137;48.834;8.732;2022-07-23T03:01:42;8.05;;;6.38;;
33830;SDS011;20137;48.834;8.732;2022-07-23T03:04:08;9.82;;;6.90;;
33830;SDS011;20137;48.834;8.732;2022-07-23T03:06:34;9.77;;;6.32;;
33830;SDS011;20137;48.834;8.732;2022-07-23T03:08:59;7.60;;;6.43;;
33830;SDS011;20137;48.834;8.732;2022-07-23T03:11:25;8.35;;;6.80;;
33830;SDS011;20137;48.834;8.732;2022-07-23T03:13:51;10.88;;;7.57;;
33830;SDS011;20137;48.834;8.732;2022-07-23T03:16:16;11.88;;;6.78;;
33830;SDS011;20137;48.834;8.732;2022-07-23T03:18:42;7.63;;;6.43;;
33830;SDS011;20137;48.834;8.732;2022-07-23T03:21:08;8.52;;;6.22;;
33830;SDS011;20137;48.834;8.732;2022-07-23T03:23:33;13.18;;;6.75;;
33830;SDS011;20137;48.834;8.732;2022-07-23T03:25:59;8.18;;;6.55;;
33830;SDS011;20137;48.834;8.732;2022-07-23T03:28:25;7.50;;;6.57;;
33830;SDS011;20137;48.834;8.732;2022-07-23T03:30:51;11.05;;;6.28;;
33830;SDS011;20137;48.834;8.732;2022-07-23T03:33:17;7.50;;;5.97;;
33830;SDS011;20137;48.834;8.732;2022-07-23T03:35:43;7.45;;;6.47;;
33830;SDS011;20137;48.834;8.732;2022-07-23T03:38:10;8.15;;;6.57;;
33830;SDS011;20137;48.834;8.732;2022-07-23T03:40:36;6.97;;;6.20;;
33830;SDS011;20137;48.834;8.732;2022-07-23T03:43:02;8.60;;;6.32;;
33830;SDS011;20137;48.834;8.732;2022-07-23T03:45:28;6.93;;;5.97;;
33830;SDS011;20137;48.834;8.732;2022-07-23T03:47:53;9.40;;;6.43;;
33830;SDS011;20137;48.834;8.732;2022-07-23T03:50:20;9.85;;;6.78;;
33830;SDS011;20137;48.834;8.732;2022-07-23T03:52:46;7.18;;;6.25;;
33830;SDS011;20137;48.834;8.732;2022-07-23T03:55:12;10.68;;;6.97;;
33830;SDS011;20137;48.834;8.732;2022-07-23T03:57:38;9.63;;;7.18;;
33830;SDS011;20137;48.834;8.732;2022-07-23T04:00:04;7.88;;;6.93;;
33830;SDS011;20137;48.834;8.732;2022-07-23T04:02:33;9.75;;;6.45;;
33830;SDS011;20137;48.834;8.732;2022-07-23T04:04:58;10.30;;;6.18;;
33830;SDS011;20137;48.834;8.732;2022-07-23T04:07:25;10.52;;;6.90;;
33830;SDS011;20137;48.834;8.732;2022-07-23T04:09:51;8.18;;;6.65;;
33830;SDS011;20137;48.834;8.732;2022-07-23T04:12:17;7.25;;;6.40;;
33830;SDS011;20137;48.834;8.732;2022-07-23T04:14:42;7.95;;;6.38;;
33830;SDS011;20137;48.834;8.732;2022-07-23T04:17:09;7.80;;;6.60;;
33830;SDS011;20137;48.834;8.732;2022-07-23T04:19:34;8.30;;;6.55;;
33830;SDS011;20137;48.834;8.732;2022-07-23T04:22:05;9.15;;;7.25;;
33830;SDS011;20137;48.834;8.732;2022-07-23T04:24:31;7.40;;;6.20;;
33830;SDS011;20137;48.834;8.732;2022-07-23T04:26:57;12.25;;;6.60;;
33830;SDS011;20137;48.834;8.732;2022-07-23T04:29:23;9.07;;;6.50;;
33830;SDS011;20137;48.834;8.732;2022-07-23T04:31:49;7.93;;;6.60;;
33830;SDS011;20137;48.834;8.732;2022-07-23T04:34:15;7.05;;;5.97;;
33830;SDS011;20137;48.834;8.732;2022-07-23T04:36:41;7.05;;;6.03;;
33830;SDS011;20137;48.834;8.732;2022-07-23T04:39:07;7.15;;;6.00;;
33830;SDS011;20137;48.834;8.732;2022-07-23T04:41:32;6.85;;;6.03;;
33830;SDS011;20137;48.834;8.732;2022-07-23T04:43:59;6.88;;;5.68;;
33830;SDS011;20137;48.834;8.732;2022-07-23T04:46:26;7.47;;;6.10;;
33830;SDS011;20137;48.834;8.732;2022-07-23T04:48:52;7.70;;;5.95;;
33830;SDS011;20137;48.834;8.732;2022-07-23T04:51:18;7.03;;;5.85;;
33830;SDS011;20137;48.834;8.732;2022-07-23T04:53:44;7.63;;;5.68;;
33830;SDS011;20137;48.834;8.732;2022-07-23T04:56:10;8.23;;;5.80;;
33830;SDS011;20137;48.834;8.732;2022-07-23T04:58:36;7.85;;;5.70;;
33830;SDS011;20137;48.834;8.732;2022-07-23T05:01:02;7.75;;;5.40;;
33830;SDS011;20137;48.834;8.732;2022-07-23T05:03:28;11.98;;;5.43;;
33830;SDS011;20137;48.834;8.732;2022-07-23T05:05:54;7.80;;;6.15;;
33830;SDS011;20137;48.834;8.732;2022-07-23T05:08:20;8.02;;;5.97;;
33830;SDS011;20137;48.834;8.732;2022-07-23T05:10:45;7.63;;;5.70;;
33830;SDS011;20137;48.834;8.732;2022-07-23T05:13:11;7.60;;;5.72;;
33830;SDS011;20137;48.834;8.732;2022-07-23T05:15:40;6.90;;;5.45;;
33830;SDS011;20137;48.834;8.732;2022-07-23T05:18:06;7.97;;;5.85;;
33830;SDS011;20137;48.834;8.732;2022-07-23T05:20:32;7.50;;;5.80;;
33830;SDS011;20137;48.834;8.732;2022-07-23T05:22:58;7.82;;;5.88;;
33830;SDS011;20137;48.834;8.732;2022-07-23T05:25:23;8.13;;;6.68;;
33830;SDS011;20137;48.834;8.732;2022-07-23T05:27:49;6.70;;;5.55;;
33830;SDS011;20137;48.834;8.732;2022-07-23T05:30:15;7.20;;;6.10;;
33830;SDS011;20137;48.834;8.732;2022-07-23T05:32:41;9.90;;;6.70;;
33830;SDS011;20137;48.834;8.732;2022-07-23T05:35:07;7.93;;;5.78;;
33830;SDS011;20137;48.834;8.732;2022-07-23T05:37:33;7.97;;;5.88;;
33830;SDS011;20137;48.834;8.732;2022-07-23T05:40:00;6.97;;;5.88;;
33830;SDS011;20137;48.834;8.732;2022-07-23T05:42:27;8.63;;;6.45;;
33830;SDS011;20137;48.834;8.732;2022-07-23T05:44:52;7.63;;;6.28;;
33830;SDS011;20137;48.834;8.732;2022-07-23T05:47:18;8.52;;;6.40;;
33830;SDS011;20137;48.834;8.732;2022-07-23T05:49:44;9.40;;;6.57;;
33830;SDS011;20137;48.834;8.732;2022-07-23T05:52:09;9.02;;;5.88;;
33830;SDS011;20137;48.834;8.732;2022-07-23T05:54:35;8.10;;;6.55;;
33830;SDS011;20137;48.834;8.732;2022-07-23T05:57:01;7.95;;;6.25;;
33830;SDS011;20137;48.834;8.732;2022-07-23T05:59:28;10.05;;;6.78;;
33830;SDS011;20137;48.834;8.732;2022-07-23T06:01:54;7.57;;;6.10;;
33830;SDS011;20137;48.834;8.732;2022-07-23T06:04:20;6.68;;;5.80;;
33830;SDS011;20137;48.834;8.732;2022-07-23T06:06:45;9.63;;;6.05;;
33830;SDS011;20137;48.834;8.732;2022-07-23T06:09:11;8.27;;;5.95;;
33830;SDS011;20137;48.834;8.732;2022-07-23T06:11:38;11.52;;;6.45;;
33830;SDS011;20137;48.834;8.732;2022-07-23T06:14:05;7.45;;;5.75;;
33830;SDS011;20137;48.834;8.732;2022-07-23T06:16:30;7.22;;;5.80;;
33830;SDS011;20137;48.834;8.732;2022-07-23T06:18:56;9.32;;;6.30;;
33830;SDS011;20137;48.834;8.732;2022-07-23T06:21:22;8.13;;;6.22;;
33830;SDS011;20137;48.834;8.732;2022-07-23T06:23:48;7.78;;;5.70;;
33830;SDS011;20137;48.834;8.732;2022-07-23T06:26:14;11.75;;;6.82;;
33830;SDS011;20137;48.834;8.732;2022-07-23T06:28:42;8.93;;;6.70;;
33830;SDS011;20137;48.834;8.732;2022-07-23T06:31:08;8.57;;;7.22;;
33830;SDS011;20137;48.834;8.732;2022-07-23T06:33:34;10.48;;;7.60;;
33830;SDS011;20137;48.834;8.732;2022-07-23T06:35:59;12.18;;;8.45;;
33830;SDS011;20137;48.834;8.732;2022-07-23T06:38:25;9.00;;;7.05;;
33830;SDS011;20137;48.834;8.732;2022-07-23T06:40:51;14.52;;;8.43;;
33830;SDS011;20137;48.834;8.732;2022-07-23T06:43:16;9.82;;;7.78;;
33830;SDS011;20137;48.834;8.732;2022-07-23T06:45:42;14.63;;;8.25;;
33830;SDS011;20137;48.834;8.732;2022-07-23T06:48:09;10.23;;;8.15;;
33830;SDS011;20137;48.834;8.732;2022-07-23T06:50:35;13.40;;;8.90;;
33830;SDS011;20137;48.834;8.732;2022-07-23T06:53:01;13.07;;;8.25;;
33830;SDS011;20137;48.834;8.732;2022-07-23T06:55:27;11.65;;;8.45;;
33830;SDS011;20137;48.834;8.732;2022-07-23T06:57:52;10.88;;;8.45;;
33830;SDS011;20137;48.834;8.732;2022-07-23T07:00:18;11.63;;;8.52;;
33830;SDS011;20137;48.834;8.732;2022-07-23T07:02:44;14.02;;;7.90;;
33830;SDS011;20137;48.834;8.732;2022-07-23T07:05:10;9.73;;;7.95;;
33830;SDS011;20137;48.834;8.732;2022-07-23T07:07:35;13.43;;;7.53;;
33830;SDS011;20137;48.834;8.732;2022-07-23T07:10:02;11.57;;;8.63;;
33830;SDS011;20137;48.834;8.732;2022-07-23T07:12:29;11.15;;;8.88;;
33830;SDS011;20137;48.834;8.732;2022-07-23T07:14:54;11.60;;;8.35;;
33830;SDS011;20137;48.834;8.732;2022-07-23T07:17:20;9.75;;;8.00;;
33830;SDS011;20137;48.834;8.732;2022-07-23T07:19:46;11.63;;;7.78;;
33830;SDS011;20137;48.834;8.732;2022-07-23T07:22:11;8.02;;;7.20;;
33830;SDS011;20137;48.834;8.732;2022-07-23T07:24:37;9.52;;;7.82;;
33830;SDS011;20137;48.834;8.732;2022-07-23T07:27:03;10.52;;;7.40;;
33830;SDS011;20137;48.834;8.732;2022-07-23T07:29:29;9.35;;;7.43;;
33830;SDS011;20137;48.834;8.732;2022-07-23T07:31:54;10.93;;;7.82;;
33830;SDS011;20137;48.834;8.732;2022-07-23T07:34:20;10.75;;;7.93;;
33830;SDS011;20137;48.834;8.732;2022-07-23T07:36:46;9.60;;;7.32;;
33830;SDS011;20137;48.834;8.732;2022-07-23T07:39:11;10.35;;;7.22;;
33830;SDS011;20137;48.834;8.732;2022-07-23T07:41:37;9.07;;;7.07;;
33830;SDS011;20137;48.834;8.732;2022-07-23T07:44:03;11.90;;;8.10;;
33830;SDS011;20137;48.834;8.732;2022-07-23T07:46:29;20.10;;;17.08;;
33830;SDS011;20137;48.834;8.732;2022-07-23T07:48:55;20.63;;;15.50;;
33830;SDS011;20137;48.834;8.732;2022-07-23T07:51:21;8.20;;;7.40;;
33830;SDS011;20137;48.834;8.732;2022-07-23T07:53:47;7.53;;;6.80;;
33830;SDS011;20137;48.834;8.732;2022-07-23T07:56:13;8.77;;;7.00;;
33830;SDS011;20137;48.834;8.732;2022-07-23T07:58:38;9.32;;;6.88;;
33830;SDS011;20137;48.834;8.732;2022-07-23T08:01:04;8.57;;;7.00;;
33830;SDS011;20137;48.834;8.732;2022-07-23T08:03:30;10.38;;;7.45;;
33830;SDS011;20137;48.834;8.732;2022-07-23T08:05:56;9.38;;;6.68;;
33830;SDS011;20137;48.834;8.732;2022-07-23T08:08:21;10.27;;;7.03;;
33830;SDS011;20137;48.834;8.732;2022-07-23T08:10:47;9.45;;;7.75;;
33830;SDS011;20137;48.834;8.732;2022-07-23T08:13:13;10.60;;;7.57;;
33830;SDS011;20137;48.834;8.732;2022-07-23T08:15:40;8.90;;;7.45;;
33830;SDS011;20137;48.834;8.732;2022-07-23T08:18:06;10.85;;;7.82;;
33830;SDS011;20137;48.834;8.732;2022-07-23T08:20:32;10.25;;;7.38;;
33830;SDS011;20137;48.834;8.732;2022-07-23T08:22:59;8.85;;;7.25;;
33830;SDS011;20137;48.834;8.732;2022-07-23T08:25:29;11.52;;;8.00;;
33830;SDS011;20137;48.834;8.732;2022-07-23T08:27:57;9.02;;;7.05;;
33830;SDS011;20137;48.834;8.732;2022-07-23T08:30:24;9.13;;;6.65;;
33830;SDS011;20137;48.834;8.732;2022-07-23T08:35:23;6.90;;;6.20;;
33830;SDS011;20137;48.834;8.732;2022-07-23T08:37:51;6.82;;;5.72;;
33830;SDS011;20137;48.834;8.732;2022-07-23T08:40:17;6.47;;;5.78;;
33830;SDS011;20137;48.834;8.732;2022-07-23T08:42:44;8.43;;;6.30;;
33830;SDS011;20137;48.834;8.732;2022-07-23T08:45:13;10.68;;;6.22;;
33830;SDS011;20137;48.834;8.732;2022-07-23T08:47:43;8.30;;;5.75;;
33830;SDS011;20137;48.834;8.732;2022-07-23T08:50:10;12.35;;;6.45;;
33830;SDS011;20137;48.834;8.732;2022-07-23T08:52:36;6.10;;;5.43;;
33830;SDS011;20137;48.834;8.732;2022-07-23T08:55:04;9.00;;;5.82;;
33830;SDS011;20137;48.834;8.732;2022-07-23T08:57:30;7.13;;;5.55;;
33830;SDS011;20137;48.834;8.732;2022-07-23T08:59:56;8.35;;;5.93;;
33830;SDS011;20137;48.834;8.732;2022-07-23T09:02:22;9.07;;;5.57;;
33830;SDS011;20137;48.834;8.732;2022-07-23T09:04:48;6.18;;;5.00;;
33830;SDS011;20137;48.834;8.732;2022-07-23T09:07:13;6.63;;;5.80;;
33830;SDS011;20137;48.834;8.732;2022-07-23T09:09:39;8.63;;;6.65;;
33830;SDS011;20137;48.834;8.732;2022-07-23T09:12:09;7.95;;;6.35;;
33830;SDS011;20137;48.834;8.732;2022-07-23T09:14:42;10.00;;;6.32;;
33830;SDS011;20137;48.834;8.732;2022-07-23T09:17:15;7.25;;;5.70;;
33830;SDS011;20137;48.834;8.732;2022-07-23T09:19:43;6.97;;;6.28;;
33830;SDS011;20137;48.834;8.732;2022-07-23T09:22:22;7.03;;;6.22;;
33830;SDS011;20137;48.834;8.732;2022-07-23T09:30:23;7.28;;;6.00;;
33830;SDS011;20137;48.834;8.732;2022-07-23T09:33:10;7.45;;;5.78;;
33830;SDS011;20137;48.834;8.732;2022-07-23T09:38:17;9.25;;;7.00;;
33830;SDS011;20137;48.834;8.732;2022-07-23T09:40:44;9.90;;;7.13;;
33830;SDS011;20137;48.834;8.732;2022-07-23T09:43:11;12.68;;;7.65;;
33830;SDS011;20137;48.834;8.732;2022-07-23T09:45:37;9.27;;;7.35;;
33830;SDS011;20137;48.834;8.732;2022-07-23T09:48:14;7.28;;;6.15;;
33830;SDS011;20137;48.834;8.732;2022-07-23T09:50:41;7.38;;;5.53;;
33830;SDS011;20137;48.834;8.732;2022-07-23T09:53:08;9.18;;;5.75;;
33830;SDS011;20137;48.834;8.732;2022-07-23T09:55:35;8.65;;;6.43;;
33830;SDS011;20137;48.834;8.732;2022-07-23T09:58:03;7.57;;;5.97;;
33830;SDS011;20137;48.834;8.732;2022-07-23T10:00:40;7.15;;;6.45;;
33830;SDS011;20137;48.834;8.732;2022-07-23T10:03:06;7.35;;;6.00;;
33830;SDS011;20137;48.834;8.732;2022-07-23T10:05:33;6.57;;;5.60;;
33830;SDS011;20137;48.834;8.732;2022-07-23T10:08:01;6.05;;;5.45;;
33830;SDS011;20137;48.834;8.732;2022-07-23T10:10:27;7.65;;;6.22;;
33830;SDS011;20137;48.834;8.732;2022-07-23T10:12:55;7.32;;;5.90;;
33830;SDS011;20137;48.834;8.732;2022-07-23T10:15:40;5.95;;;5.35;;
33830;SDS011;20137;48.834;8.732;2022-07-23T10:18:07;9.00;;;5.93;;
33830;SDS011;20137;48.834;8.732;2022-07-23T10:20:35;6.68;;;5.72;;
33830;SDS011;20137;48.834;8.732;2022-07-23T10:23:15;8.98;;;5.90;;
33830;SDS011;20137;48.834;8.732;2022-07-23T10:26:02;7.15;;;5.60;;
33830;SDS011;20137;48.834;8.732;2022-07-23T10:37:00;7.80;;;5.78;;
33830;SDS011;20137;48.834;8.732;2022-07-23T10:39:36;7.90;;;5.90;;
33830;SDS011;20137;48.834;8.732;2022-07-23T10:44:45;7.45;;;5.93;;
33830;SDS011;20137;48.834;8.732;2022-07-23T10:47:13;9.80;;;5.75;;
33830;SDS011;20137;48.834;8.732;2022-07-23T10:57:58;8.00;;;6.53;;
33830;SDS011;20137;48.834;8.732;2022-07-23T11:00:26;8.60;;;6.80;;
33830;SDS011;20137;48.834;8.732;2022-07-23T11:02:56;8.82;;;6.90;;
33830;SDS011;20137;48.834;8.732;2022-07-23T11:05:47;7.43;;;6.47;;
33830;SDS011;20137;48.834;8.732;2022-07-23T11:10:52;7.15;;;5.85;;
33830;SDS011;20137;48.834;8.732;2022-07-23T11:13:28;7.13;;;6.20;;
33830;SDS011;20137;48.834;8.732;2022-07-23T11:31:54;8.23;;;7.00;;
33830;SDS011;20137;48.834;8.732;2022-07-23T11:34:34;8.32;;;6.30;;
33830;SDS011;20137;48.834;8.732;2022-07-23T11:37:03;9.45;;;6.18;;
33830;SDS011;20137;48.834;8.732;2022-07-23T11:39:31;7.35;;;6.55;;
33830;SDS011;20137;48.834;8.732;2022-07-23T11:42:00;8.93;;;6.30;;
33830;SDS011;20137;48.834;8.732;2022-07-23T11:44:30;8.07;;;6.57;;
33830;SDS011;20137;48.834;8.732;2022-07-23T11:46:58;8.57;;;6.82;;
33830;SDS011;20137;48.834;8.732;2022-07-23T11:49:25;9.18;;;6.88;;
33830;SDS011;20137;48.834;8.732;2022-07-23T11:52:11;7.35;;;6.30;;
33830;SDS011;20137;48.834;8.732;2022-07-23T11:57:21;7.45;;;6.40;;
33830;SDS011;20137;48.834;8.732;2022-07-23T11:59:51;6.78;;;6.07;;
33830;SDS011;20137;48.834;8.732;2022-07-23T12:02:19;9.30;;;6.43;;
33830;SDS011;20137;48.834;8.732;2022-07-23T12:04:47;7.00;;;6.35;;
33830;SDS011;20137;48.834;8.732;2022-07-23T12:09:56;9.35;;;6.40;;
33830;SDS011;20137;48.834;8.732;2022-07-23T12:12:23;7.47;;;6.68;;
33830;SDS011;20137;48.834;8.732;2022-07-23T12:14:56;7.78;;;5.82;;
33830;SDS011;20137;48.834;8.732;2022-07-23T12:17:32;10.10;;;6.40;;
33830;SDS011;20137;48.834;8.732;2022-07-23T12:20:00;8.90;;;7.15;;
33830;SDS011;20137;48.834;8.732;2022-07-23T12:22:33;8.98;;;6.22;;
33830;SDS011;20137;48.834;8.732;2022-07-23T12:25:11;8.77;;;6.70;;
33830;SDS011;20137;48.834;8.732;2022-07-23T12:27:57;8.85;;;6.45;;
33830;SDS011;20137;48.834;8.732;2022-07-23T12:30:41;8.48;;;6.85;;
33830;SDS011;20137;48.834;8.732;2022-07-23T12:35:50;6.57;;;5.95;;
33830;SDS011;20137;48.834;8.732;2022-07-23T12:38:18;6.50;;;5.80;;
33830;SDS011;20137;48.834;8.732;2022-07-23T12:40:49;8.82;;;6.18;;
33830;SDS011;20137;48.834;8.732;2022-07-23T12:43:26;8.93;;;5.78;;
33830;SDS011;20137;48.834;8.732;2022-07-23T12:46:00;9.38;;;6.60;;
33830;SDS011;20137;48.834;8.732;2022-07-23T12:48:32;8.82;;;6.25;;
33830;SDS011;20137;48.834;8.732;2022-07-23T12:56:32;8.38;;;6.63;;
33830;SDS011;20137;48.834;8.732;2022-07-23T13:01:32;7.55;;;6.10;;
33830;SDS011;20137;48.834;8.732;2022-07-23T13:04:07;9.48;;;6.18;;
33830;SDS011;20137;48.834;8.732;2022-07-23T13:06:44;8.63;;;6.57;;
33830;SDS011;20137;48.834;8.732;2022-07-23T13:09:13;8.93;;;6.32;;
33830;SDS011;20137;48.834;8.732;2022-07-23T13:11:41;8.40;;;6.80;;
33830;SDS011;20137;48.834;8.732;2022-07-23T13:14:07;6.53;;;5.80;;
33830;SDS011;20137;48.834;8.732;2022-07-23T13:16:34;7.50;;;6.63;;
33830;SDS011;20137;48.834;8.732;2022-07-23T13:19:00;7.88;;;6.18;;
33830;SDS011;20137;48.834;8.732;2022-07-23T13:21:26;8.32;;;7.22;;
33830;SDS011;20137;48.834;8.732;2022-07-23T13:23:53;7.68;;;6.53;;
33830;SDS011;20137;48.834;8.732;2022-07-23T13:26:19;7.97;;;6.20;;
33830;SDS011;20137;48.834;8.732;2022-07-23T13:28:45;8.43;;;6.65;;
33830;SDS011;20137;48.834;8.732;2022-07-23T13:31:11;7.60;;;6.35;;
33830;SDS011;20137;48.834;8.732;2022-07-23T13:33:38;9.68;;;6.90;;
33830;SDS011;20137;48.834;8.732;2022-07-23T13:36:04;11.13;;;6.85;;
33830;SDS011;20137;48.834;8.732;2022-07-23T13:38:30;8.10;;;6.72;;
33830;SDS011;20137;48.834;8.732;2022-07-23T13:40:56;7.45;;;6.65;;
33830;SDS011;20137;48.834;8.732;2022-07-23T13:43:23;10.93;;;6.68;;
33830;SDS011;20137;48.834;8.732;2022-07-23T13:45:50;8.05;;;6.78;;
33830;SDS011;20137;48.834;8.732;2022-07-23T13:48:17;8.88;;;7.00;;
33830;SDS011;20137;48.834;8.732;2022-07-23T13:50:43;8.60;;;7.20;;
33830;SDS011;20137;48.834;8.732;2022-07-23T13:53:10;7.45;;;5.95;;
33830;SDS011;20137;48.834;8.732;2022-07-23T13:55:39;7.72;;;6.60;;
33830;SDS011;20137;48.834;8.732;2022-07-23T13:58:06;8.05;;;6.30;;
33830;SDS011;20137;48.834;8.732;2022-07-23T14:00:37;9.88;;;6.97;;
33830;SDS011;20137;48.834;8.732;2022-07-23T14:03:04;10.63;;;6.85;;
33830;SDS011;20137;48.834;8.732;2022-07-23T14:05:30;9.63;;;7.03;;
33830;SDS011;20137;48.834;8.732;2022-07-23T14:07:56;8.63;;;6.60;;
33830;SDS011;20137;48.834;8.732;2022-07-23T14:10:22;9.35;;;6.97;;
33830;SDS011;20137;48.834;8.732;2022-07-23T14:12:49;7.75;;;6.43;;
33830;SDS011;20137;48.834;8.732;2022-07-23T14:15:16;9.60;;;7.47;;
33830;SDS011;20137;48.834;8.732;2022-07-23T14:17:43;7.78;;;6.97;;
33830;SDS011;20137;48.834;8.732;2022-07-23T14:20:10;10.68;;;7.50;;
33830;SDS011;20137;48.834;8.732;2022-07-23T14:22:37;9.85;;;6.93;;
33830;SDS011;20137;48.834;8.732;2022-07-23T14:25:03;9.05;;;6.85;;
33830;SDS011;20137;48.834;8.732;2022-07-23T14:27:31;9.05;;;7.20;;
33830;SDS011;20137;48.834;8.732;2022-07-23T14:29:56;7.70;;;6.90;;
33830;SDS011;20137;48.834;8.732;2022-07-23T14:32:22;14.13;;;6.75;;
33830;SDS011;20137;48.834;8.732;2022-07-23T14:34:48;9.38;;;7.15;;
33830;SDS011;20137;48.834;8.732;2022-07-23T14:37:14;10.68;;;6.85;;
33830;SDS011;20137;48.834;8.732;2022-07-23T14:39:41;7.68;;;6.90;;
33830;SDS011;20137;48.834;8.732;2022-07-23T14:42:07;7.57;;;6.80;;
33830;SDS011;20137;48.834;8.732;2022-07-23T14:44:34;8.50;;;7.07;;
33830;SDS011;20137;48.834;8.732;2022-07-23T14:47:01;10.77;;;7.50;;
33830;SDS011;20137;48.834;8.732;2022-07-23T14:49:29;8.95;;;6.95;;
33830;SDS011;20137;48.834;8.732;2022-07-23T14:51:55;8.93;;;7.28;;
33830;SDS011;20137;48.834;8.732;2022-07-23T14:54:21;7.75;;;6.68;;
33830;SDS011;20137;48.834;8.732;2022-07-23T14:56:47;7.53;;;6.55;;
33830;SDS011;20137;48.834;8.732;2022-07-23T14:59:13;11.30;;;7.13;;
33830;SDS011;20137;48.834;8.732;2022-07-23T15:01:39;9.18;;;7.07;;
33830;SDS011;20137;48.834;8.732;2022-07-23T15:04:05;8.88;;;7.75;;
33830;SDS011;20137;48.834;8.732;2022-07-23T15:06:31;8.95;;;7.38;;
33830;SDS011;20137;48.834;8.732;2022-07-23T15:08:58;7.88;;;6.78;;
33830;SDS011;20137;48.834;8.732;2022-07-23T15:11:25;9.20;;;7.10;;
33830;SDS011;20137;48.834;8.732;2022-07-23T15:13:57;11.13;;;7.50;;
33830;SDS011;20137;48.834;8.732;2022-07-23T15:16:22;10.07;;;7.65;;
33830;SDS011;20137;48.834;8.732;2022-07-23T15:18:48;11.80;;;7.65;;
33830;SDS011;20137;48.834;8.732;2022-07-23T15:21:14;8.73;;;7.40;;
33830;SDS011;20137;48.834;8.732;2022-07-23T15:23:39;9.48;;;8.10;;
33830;SDS011;20137;48.834;8.732;2022-07-23T15:26:05;10.20;;;7.93;;
33830;SDS011;20137;48.834;8.732;2022-07-23T15:28:32;8.93;;;7.43;;
33830;SDS011;20137;48.834;8.732;2022-07-23T15:30:58;10.65;;;8.00;;
33830;SDS011;20137;48.834;8.732;2022-07-23T15:33:24;8.73;;;7.32;;
33830;SDS011;20137;48.834;8.732;2022-07-23T15:35:49;9.55;;;7.47;;
33830;SDS011;20137;48.834;8.732;2022-07-23T15:38:17;8.65;;;7.82;;
33830;SDS011;20137;48.834;8.732;2022-07-23T15:40:43;9.27;;;7.20;;
33830;SDS011;20137;48.834;8.732;2022-07-23T15:43:09;8.23;;;7.20;;
33830;SDS011;20137;48.834;8.732;2022-07-23T15:45:34;9.50;;;7.45;;
33830;SDS011;20137;48.834;8.732;2022-07-23T15:48:00;8.60;;;7.70;;
33830;SDS011;20137;48.834;8.732;2022-07-23T15:50:26;9.48;;;7.60;;